createdAt,value
2017-11-08T00:00:55.118Z,100
2017-11-08T00:01:57.486Z,100
2017-11-08T00:03:00.010Z,100
2017-11-08T00:04:02.390Z,100
2017-11-08T00:05:04.750Z,100
2017-11-08T00:06:07.238Z,100
2017-11-08T00:07:09.634Z,100
2017-11-08T00:08:12.184Z,100
2017-11-08T00:09:14.925Z,100
2017-11-08T00:10:17.810Z,100
2017-11-08T00:11:20.192Z,100
2017-11-08T00:12:22.925Z,100
2017-11-08T00:13:25.459Z,100
2017-11-08T00:14:27.825Z,100
2017-11-08T00:15:30.388Z,100
2017-11-08T00:16:32.761Z,100
2017-11-08T00:17:35.141Z,100
2017-11-08T00:18:37.617Z,100
2017-11-08T00:19:39.984Z,100
2017-11-08T00:20:42.593Z,100
2017-11-08T00:21:45.326Z,100
2017-11-08T00:22:47.703Z,100
2017-11-08T00:23:50.184Z,100
2017-11-08T00:24:52.556Z,100
2017-11-08T00:25:55.126Z,100
2017-11-08T00:26:57.492Z,100
2017-11-08T00:27:59.870Z,100
2017-11-08T00:29:02.751Z,100
2017-11-08T00:30:05.110Z,100
2017-11-08T00:31:07.495Z,100
2017-11-08T00:32:10.218Z,100
2017-11-08T00:33:13.031Z,100
2017-11-08T00:34:15.402Z,100
2017-11-08T00:35:17.775Z,100
2017-11-08T00:36:20.407Z,100
2017-11-08T00:37:22.791Z,100
2017-11-08T00:38:25.162Z,100
2017-11-08T00:39:27.536Z,100
2017-11-08T00:40:29.905Z,100
2017-11-08T00:41:32.379Z,100
2017-11-08T00:42:34.747Z,100
2017-11-08T00:43:37.177Z,100
2017-11-08T00:44:39.605Z,100
2017-11-08T00:45:42.070Z,100
2017-11-08T00:46:44.484Z,100
2017-11-08T00:47:46.919Z,100
2017-11-08T00:48:49.399Z,100
2017-11-08T00:49:51.774Z,100
2017-11-08T00:50:54.147Z,100
2017-11-08T00:51:56.874Z,100
2017-11-08T00:52:59.251Z,100
2017-11-08T00:54:01.627Z,100
2017-11-08T00:55:04.001Z,100
2017-11-08T00:56:06.382Z,100
2017-11-08T00:57:08.795Z,100
2017-11-08T00:58:11.432Z,100
2017-11-08T00:59:14.382Z,100
2017-11-08T01:00:16.749Z,100
2017-11-08T01:01:19.244Z,100
2017-11-08T01:02:21.745Z,100
2017-11-08T01:03:24.805Z,100
2017-11-08T01:04:27.180Z,100
2017-11-08T01:05:29.547Z,100
2017-11-08T01:06:31.929Z,100
2017-11-08T01:07:34.306Z,100
2017-11-08T01:08:36.677Z,100
2017-11-08T01:09:39.034Z,100
2017-11-08T01:10:41.418Z,100
2017-11-08T01:11:43.791Z,100
2017-11-08T01:12:46.164Z,100
2017-11-08T01:13:48.532Z,100
2017-11-08T01:14:50.903Z,100
2017-11-08T01:15:53.271Z,100
2017-11-08T01:16:55.655Z,100
2017-11-08T01:17:58.019Z,100
2017-11-08T01:19:00.402Z,100
2017-11-08T01:20:02.772Z,100
2017-11-08T01:21:05.158Z,100
2017-11-08T01:22:07.530Z,100
2017-11-08T01:23:09.902Z,100
2017-11-08T01:24:12.282Z,100
2017-11-08T01:25:14.646Z,100
2017-11-08T01:26:17.370Z,100
2017-11-08T01:27:19.743Z,100
2017-11-08T01:28:22.101Z,100
2017-11-08T01:29:24.484Z,100
2017-11-08T01:30:27.209Z,100
2017-11-08T01:31:29.581Z,100
2017-11-08T01:32:31.964Z,100
2017-11-08T01:33:34.332Z,100
2017-11-08T01:34:36.695Z,100
2017-11-08T01:35:39.084Z,100
2017-11-08T01:36:41.443Z,100
2017-11-08T01:37:43.818Z,100
2017-11-08T01:38:46.200Z,100
2017-11-08T01:39:48.572Z,100
2017-11-08T01:40:50.943Z,100
2017-11-08T01:41:53.667Z,100
2017-11-08T01:42:56.032Z,100
2017-11-08T01:43:58.407Z,100
2017-11-08T01:45:00.780Z,100
2017-11-08T01:46:03.161Z,100
2017-11-08T01:47:05.535Z,100
2017-11-08T01:48:07.913Z,100
2017-11-08T01:49:10.293Z,100
2017-11-08T01:50:13.372Z,100
2017-11-08T01:51:15.737Z,100
2017-11-08T01:52:18.105Z,100
2017-11-08T01:53:20.484Z,100
2017-11-08T01:54:22.855Z,100
2017-11-08T01:55:25.234Z,100
2017-11-08T01:56:27.598Z,100
2017-11-08T01:57:29.965Z,100
2017-11-08T01:58:32.343Z,100
2017-11-08T01:59:34.716Z,100
2017-11-08T02:00:37.452Z,100
2017-11-08T02:01:39.824Z,100
2017-11-08T02:02:42.185Z,100
2017-11-08T02:03:44.565Z,100
2017-11-08T02:04:46.939Z,100
2017-11-08T02:05:49.310Z,100
2017-11-08T02:06:51.678Z,100
2017-11-08T02:07:54.069Z,100
2017-11-08T02:08:56.435Z,100
2017-11-08T02:09:58.811Z,100
2017-11-08T02:11:01.178Z,100
2017-11-08T02:12:03.544Z,100
2017-11-08T02:13:05.919Z,100
2017-11-08T02:14:08.659Z,100
2017-11-08T02:15:11.392Z,100
2017-11-08T02:16:13.759Z,100
2017-11-08T02:17:16.135Z,100
2017-11-08T02:18:18.514Z,100
2017-11-08T02:19:20.889Z,100
2017-11-08T02:20:23.608Z,100
2017-11-08T02:21:25.974Z,100
2017-11-08T02:22:28.347Z,100
2017-11-08T02:23:30.725Z,100
2017-11-08T02:24:33.099Z,100
2017-11-08T02:25:35.476Z,100
2017-11-08T02:26:37.854Z,100
2017-11-08T02:27:40.215Z,100
2017-11-08T02:28:42.592Z,100
2017-11-08T02:29:44.961Z,100
2017-11-08T02:30:47.340Z,100
2017-11-08T02:31:49.705Z,100
2017-11-08T02:32:52.092Z,100
2017-11-08T02:33:54.815Z,100
2017-11-08T02:34:57.544Z,100
2017-11-08T02:35:59.909Z,100
2017-11-08T02:37:02.286Z,100
2017-11-08T02:38:04.653Z,100
2017-11-08T02:39:07.023Z,100
2017-11-08T02:40:09.400Z,100
2017-11-08T02:41:11.780Z,100
2017-11-08T02:42:14.150Z,100
2017-11-08T02:43:16.536Z,100
2017-11-08T02:44:18.906Z,100
2017-11-08T02:45:21.631Z,100
2017-11-08T02:46:24.004Z,100
2017-11-08T02:47:26.378Z,100
2017-11-08T02:48:28.741Z,100
2017-11-08T02:49:31.131Z,100
2017-11-08T02:50:33.497Z,100
2017-11-08T02:51:36.201Z,100
2017-11-08T02:52:38.580Z,100
2017-11-08T02:53:41.669Z,100
2017-11-08T02:54:44.041Z,100
2017-11-08T02:55:46.771Z,100
2017-11-08T02:56:49.145Z,100
2017-11-08T02:57:51.862Z,100
2017-11-08T02:58:54.247Z,100
2017-11-08T02:59:56.973Z,100
2017-11-08T03:01:00.038Z,100
2017-11-08T03:02:02.789Z,100
2017-11-08T03:03:05.177Z,100
2017-11-08T03:04:07.557Z,100
2017-11-08T03:05:09.936Z,100
2017-11-08T03:06:12.299Z,100
2017-11-08T03:07:14.667Z,100
2017-11-08T03:08:17.053Z,100
2017-11-08T03:09:19.431Z,100
2017-11-08T03:10:21.798Z,100
2017-11-08T03:11:24.178Z,100
2017-11-08T03:12:26.563Z,100
2017-11-08T03:13:28.937Z,100
2017-11-08T03:14:31.308Z,100
2017-11-08T03:15:33.667Z,100
2017-11-08T03:16:36.036Z,100
2017-11-08T03:17:38.415Z,100
2017-11-08T03:18:40.789Z,100
2017-11-08T03:19:43.163Z,100
2017-11-08T03:20:45.544Z,100
2017-11-08T03:21:47.923Z,100
2017-11-08T03:22:50.276Z,100
2017-11-08T03:23:52.660Z,100
2017-11-08T03:24:55.035Z,100
2017-11-08T03:25:57.416Z,100
2017-11-08T03:26:59.800Z,100
2017-11-08T03:28:02.170Z,100
2017-11-08T03:29:04.537Z,100
2017-11-08T03:30:06.921Z,100
2017-11-08T03:31:09.284Z,100
2017-11-08T03:32:11.661Z,100
2017-11-08T03:33:14.035Z,100
2017-11-08T03:34:16.414Z,100
2017-11-08T03:35:18.787Z,100
2017-11-08T03:36:21.166Z,100
2017-11-08T03:37:23.888Z,100
2017-11-08T03:38:26.614Z,100
2017-11-08T03:39:29.335Z,100
2017-11-08T03:40:31.718Z,100
2017-11-08T03:41:34.079Z,100
2017-11-08T03:42:36.457Z,100
2017-11-08T03:43:38.819Z,100
2017-11-08T03:44:41.196Z,100
2017-11-08T03:45:43.572Z,100
2017-11-08T03:46:45.950Z,100
2017-11-08T03:47:48.323Z,100
2017-11-08T03:48:50.706Z,100
2017-11-08T03:49:53.075Z,100
2017-11-08T03:50:55.790Z,100
2017-11-08T03:51:58.163Z,100
2017-11-08T03:53:00.539Z,100
2017-11-08T03:54:03.282Z,100
2017-11-08T03:55:05.664Z,100
2017-11-08T03:56:08.045Z,100
2017-11-08T03:57:10.409Z,100
2017-11-08T03:58:13.144Z,100
2017-11-08T03:59:15.518Z,100
2017-11-08T04:00:18.231Z,100
2017-11-08T04:01:20.611Z,100
2017-11-08T04:02:22.989Z,100
2017-11-08T04:03:25.359Z,100
2017-11-08T04:04:27.735Z,100
2017-11-08T04:05:30.096Z,100
2017-11-08T04:06:32.474Z,100
2017-11-08T04:07:34.858Z,100
2017-11-08T04:08:37.217Z,100
2017-11-08T04:09:39.586Z,100
2017-11-08T04:10:41.960Z,100
2017-11-08T04:11:44.333Z,100
2017-11-08T04:12:47.407Z,100
2017-11-08T04:13:49.777Z,100
2017-11-08T04:14:52.134Z,100
2017-11-08T04:15:54.517Z,100
2017-11-08T04:16:57.262Z,100
2017-11-08T04:17:59.651Z,100
2017-11-08T04:19:02.030Z,100
2017-11-08T04:20:04.379Z,100
2017-11-08T04:21:07.113Z,100
2017-11-08T04:22:09.547Z,100
2017-11-08T04:23:11.920Z,100
2017-11-08T04:24:14.306Z,100
2017-11-08T04:25:16.681Z,100
2017-11-08T04:26:19.054Z,100
2017-11-08T04:27:21.427Z,100
2017-11-08T04:28:24.185Z,100
2017-11-08T04:29:26.562Z,100
2017-11-08T04:30:28.940Z,100
2017-11-08T04:31:31.303Z,100
2017-11-08T04:32:33.678Z,100
2017-11-08T04:33:36.058Z,100
2017-11-08T04:34:38.432Z,100
2017-11-08T04:35:41.157Z,100
2017-11-08T04:36:43.881Z,100
2017-11-08T04:37:46.266Z,100
2017-11-08T04:38:48.640Z,100
2017-11-08T04:39:51.010Z,100
2017-11-08T04:40:53.376Z,100
2017-11-08T04:41:55.756Z,100
2017-11-08T04:42:58.129Z,100
2017-11-08T04:44:00.499Z,100
2017-11-08T04:45:02.890Z,100
2017-11-08T04:46:05.259Z,100
2017-11-08T04:47:07.642Z,100
2017-11-08T04:48:10.032Z,100
2017-11-08T04:49:12.401Z,100
2017-11-08T04:50:14.774Z,100
2017-11-08T04:51:17.516Z,100
2017-11-08T04:52:20.239Z,100
2017-11-08T04:53:22.602Z,100
2017-11-08T04:54:25.333Z,100
2017-11-08T04:55:27.715Z,100
2017-11-08T04:56:30.086Z,100
2017-11-08T04:57:32.821Z,100
2017-11-08T04:58:35.551Z,100
2017-11-08T04:59:37.923Z,100
2017-11-08T05:00:40.649Z,100
2017-11-08T05:01:43.023Z,100
2017-11-08T05:02:45.387Z,100
2017-11-08T05:03:47.765Z,100
2017-11-08T05:04:50.129Z,100
2017-11-08T05:05:52.850Z,100
2017-11-08T05:06:55.223Z,100
2017-11-08T05:07:57.597Z,100
2017-11-08T05:08:59.964Z,100
2017-11-08T05:10:02.347Z,100
2017-11-08T05:11:04.720Z,100
2017-11-08T05:12:07.121Z,100
2017-11-08T05:13:09.870Z,100
2017-11-08T05:14:12.250Z,100
2017-11-08T05:15:14.621Z,100
2017-11-08T05:16:17.001Z,100
2017-11-08T05:17:19.384Z,100
2017-11-08T05:18:21.757Z,100
2017-11-08T05:19:24.125Z,100
2017-11-08T05:20:26.860Z,100
2017-11-08T05:21:29.243Z,100
2017-11-08T05:22:31.617Z,100
2017-11-08T05:23:33.980Z,100
2017-11-08T05:24:36.360Z,100
2017-11-08T05:25:38.731Z,100
2017-11-08T05:26:41.119Z,100
2017-11-08T05:27:43.492Z,100
2017-11-08T05:28:45.848Z,100
2017-11-08T05:29:48.222Z,100
2017-11-08T05:30:50.606Z,100
2017-11-08T05:31:52.978Z,100
2017-11-08T05:32:55.716Z,100
2017-11-08T05:33:58.097Z,100
2017-11-08T05:35:00.483Z,100
2017-11-08T05:36:02.859Z,100
2017-11-08T05:37:05.232Z,100
2017-11-08T05:38:07.592Z,100
2017-11-08T05:39:09.976Z,100
2017-11-08T05:40:12.350Z,100
2017-11-08T05:41:14.723Z,100
2017-11-08T05:42:17.101Z,100
2017-11-08T05:43:19.484Z,100
2017-11-08T05:44:22.188Z,100
2017-11-08T05:45:24.573Z,100
2017-11-08T05:46:26.937Z,100
2017-11-08T05:47:29.310Z,100
2017-11-08T05:48:31.680Z,100
2017-11-08T05:49:34.052Z,100
2017-11-08T05:50:36.426Z,100
2017-11-08T05:51:38.805Z,100
2017-11-08T05:52:41.176Z,100
2017-11-08T05:53:43.562Z,100
2017-11-08T05:54:45.924Z,100
2017-11-08T05:55:48.310Z,100
2017-11-08T05:56:50.676Z,100
2017-11-08T05:57:53.045Z,100
2017-11-08T05:58:55.413Z,100
2017-11-08T05:59:57.792Z,100
2017-11-08T06:01:00.160Z,100
2017-11-08T06:02:02.551Z,100
2017-11-08T06:03:04.915Z,100
2017-11-08T06:04:07.296Z,100
2017-11-08T06:05:10.019Z,100
2017-11-08T06:06:12.744Z,100
2017-11-08T06:07:15.170Z,100
2017-11-08T06:08:17.554Z,100
2017-11-08T06:09:19.919Z,100
2017-11-08T06:10:22.311Z,100
2017-11-08T06:11:25.031Z,100
2017-11-08T06:12:27.397Z,100
2017-11-08T06:13:29.779Z,100
2017-11-08T06:14:32.154Z,100
2017-11-08T06:15:34.558Z,100
2017-11-08T06:16:36.937Z,100
2017-11-08T06:17:39.304Z,100
2017-11-08T06:18:41.674Z,100
2017-11-08T06:19:44.057Z,100
2017-11-08T06:20:46.434Z,100
2017-11-08T06:21:48.813Z,100
2017-11-08T06:22:51.190Z,100
2017-11-08T06:23:53.572Z,100
2017-11-08T06:24:55.939Z,100
2017-11-08T06:25:58.683Z,100
2017-11-08T06:27:01.057Z,100
2017-11-08T06:28:03.777Z,100
2017-11-08T06:29:06.153Z,100
2017-11-08T06:30:08.529Z,100
2017-11-08T06:31:10.909Z,100
2017-11-08T06:32:13.281Z,100
2017-11-08T06:33:15.660Z,100
2017-11-08T06:34:18.037Z,100
2017-11-08T06:35:20.416Z,100
2017-11-08T06:36:22.801Z,100
2017-11-08T06:37:25.868Z,100
2017-11-08T06:38:28.242Z,100
2017-11-08T06:39:30.623Z,100
2017-11-08T06:40:32.999Z,100
2017-11-08T06:41:35.367Z,100
2017-11-08T06:42:37.748Z,100
2017-11-08T06:43:40.112Z,100
2017-11-08T06:44:42.851Z,100
2017-11-08T06:45:45.230Z,100
2017-11-08T06:46:47.601Z,100
2017-11-08T06:47:49.983Z,100
2017-11-08T06:48:52.366Z,100
2017-11-08T06:49:54.727Z,100
2017-11-08T06:50:57.107Z,100
2017-11-08T06:51:59.485Z,100
2017-11-08T06:53:01.853Z,100
2017-11-08T06:54:04.241Z,100
2017-11-08T06:55:06.610Z,100
2017-11-08T06:56:08.987Z,100
2017-11-08T06:57:11.368Z,100
2017-11-08T06:58:13.747Z,100
2017-11-08T06:59:16.452Z,100
2017-11-08T07:00:18.829Z,100
2017-11-08T07:01:21.557Z,100
2017-11-08T07:02:23.931Z,100
2017-11-08T07:03:26.307Z,100
2017-11-08T07:04:29.061Z,100
2017-11-08T07:05:31.788Z,100
2017-11-08T07:06:34.158Z,100
2017-11-08T07:07:36.879Z,100
2017-11-08T07:08:39.244Z,100
2017-11-08T07:09:41.622Z,100
2017-11-08T07:10:44.000Z,100
2017-11-08T07:11:46.714Z,100
2017-11-08T07:12:49.095Z,100
2017-11-08T07:13:51.824Z,100
2017-11-08T07:14:54.203Z,100
2017-11-08T07:15:56.576Z,100
2017-11-08T07:16:58.944Z,100
2017-11-08T07:18:01.355Z,100
2017-11-08T07:19:03.728Z,100
2017-11-08T07:20:06.092Z,100
2017-11-08T07:21:08.477Z,100
2017-11-08T07:22:11.202Z,100
2017-11-08T07:23:13.582Z,100
2017-11-08T07:24:16.316Z,100
2017-11-08T07:25:18.684Z,100
2017-11-08T07:26:21.059Z,100
2017-11-08T07:27:23.445Z,100
2017-11-08T07:28:26.206Z,100
2017-11-08T07:29:28.561Z,100
2017-11-08T07:30:30.935Z,100
2017-11-08T07:31:33.300Z,100
2017-11-08T07:32:35.686Z,100
2017-11-08T07:33:38.065Z,100
2017-11-08T07:34:40.448Z,100
2017-11-08T07:35:42.802Z,100
2017-11-08T07:36:45.188Z,100
2017-11-08T07:37:47.553Z,100
2017-11-08T07:38:49.926Z,100
2017-11-08T07:39:52.289Z,100
2017-11-08T07:40:54.662Z,100
2017-11-08T07:41:57.051Z,100
2017-11-08T07:42:59.439Z,100
2017-11-08T07:44:02.195Z,100
2017-11-08T07:45:04.570Z,100
2017-11-08T07:46:06.945Z,100
2017-11-08T07:47:09.330Z,100
2017-11-08T07:48:11.705Z,100
2017-11-08T07:49:14.082Z,100
2017-11-08T07:50:16.458Z,100
2017-11-08T07:51:18.830Z,100
2017-11-08T07:52:21.259Z,100
2017-11-08T07:53:23.688Z,100
2017-11-08T07:54:26.126Z,100
2017-11-08T07:55:28.581Z,100
2017-11-08T07:56:31.056Z,100
2017-11-08T07:57:33.489Z,100
2017-11-08T07:58:35.972Z,100
2017-11-08T07:59:38.449Z,100
2017-11-08T08:00:40.898Z,100
2017-11-08T08:01:43.368Z,100
2017-11-08T08:02:45.797Z,100
2017-11-08T08:03:48.241Z,100
2017-11-08T08:04:51.095Z,100
2017-11-08T08:05:53.524Z,100
2017-11-08T08:06:55.982Z,100
2017-11-08T08:07:58.768Z,100
2017-11-08T08:09:01.213Z,100
2017-11-08T08:10:03.648Z,100
2017-11-08T08:11:06.174Z,100
2017-11-08T08:12:08.639Z,100
2017-11-08T08:13:11.079Z,100
2017-11-08T08:14:13.871Z,100
2017-11-08T08:15:17.090Z,100
2017-11-08T08:16:19.529Z,100
2017-11-08T08:17:21.970Z,100
2017-11-08T08:18:24.421Z,100
2017-11-08T08:19:26.965Z,100
2017-11-08T08:20:29.460Z,100
2017-11-08T08:21:31.922Z,100
2017-11-08T08:22:34.347Z,100
2017-11-08T08:23:36.794Z,100
2017-11-08T08:24:39.343Z,100
2017-11-08T08:25:41.780Z,100
2017-11-08T08:26:44.334Z,100
2017-11-08T08:27:47.133Z,100
2017-11-08T08:28:50.167Z,100
2017-11-08T08:29:52.615Z,100
2017-11-08T08:30:55.040Z,100
2017-11-08T08:31:57.832Z,100
2017-11-08T08:33:00.276Z,100
2017-11-08T08:34:02.707Z,100
2017-11-08T08:35:05.139Z,100
2017-11-08T08:36:07.584Z,100
2017-11-08T08:37:10.025Z,100
2017-11-08T08:38:12.454Z,100
2017-11-08T08:39:14.893Z,100
2017-11-08T08:40:17.699Z,100
2017-11-08T08:41:20.144Z,100
2017-11-08T08:42:22.933Z,100
2017-11-08T08:43:25.361Z,100
2017-11-08T08:44:27.796Z,100
2017-11-08T08:45:30.311Z,100
2017-11-08T08:46:32.804Z,100
2017-11-08T08:47:35.248Z,100
2017-11-08T08:48:37.674Z,100
2017-11-08T08:49:40.106Z,100
2017-11-08T08:50:42.546Z,100
2017-11-08T08:51:44.975Z,100
2017-11-08T08:52:47.761Z,100
2017-11-08T08:53:50.199Z,100
2017-11-08T08:54:52.632Z,100
2017-11-08T08:55:55.061Z,100
2017-11-08T08:56:57.505Z,100
2017-11-08T08:57:59.947Z,100
2017-11-08T08:59:02.385Z,100
2017-11-08T09:00:04.823Z,100
2017-11-08T09:01:07.264Z,100
2017-11-08T09:02:10.052Z,100
2017-11-08T09:03:12.480Z,100
2017-11-08T09:04:14.923Z,100
2017-11-08T09:05:17.349Z,100
2017-11-08T09:06:19.787Z,100
2017-11-08T09:07:22.228Z,100
2017-11-08T09:08:24.663Z,100
2017-11-08T09:09:27.125Z,100
2017-11-08T09:10:29.560Z,100
2017-11-08T09:11:31.997Z,100
2017-11-08T09:12:34.436Z,100
2017-11-08T09:13:36.864Z,100
2017-11-08T09:14:39.300Z,100
2017-11-08T09:15:41.736Z,100
2017-11-08T09:16:44.167Z,100
2017-11-08T09:17:46.594Z,100
2017-11-08T09:18:49.023Z,100
2017-11-08T09:19:51.439Z,100
2017-11-08T09:20:53.886Z,100
2017-11-08T09:21:56.323Z,100
2017-11-08T09:22:58.756Z,100
2017-11-08T09:24:01.191Z,100
2017-11-08T09:25:03.629Z,100
2017-11-08T09:26:06.064Z,100
2017-11-08T09:27:08.508Z,100
2017-11-08T09:28:11.357Z,100
2017-11-08T09:29:13.798Z,100
2017-11-08T09:30:16.233Z,100
2017-11-08T09:31:18.668Z,100
2017-11-08T09:32:21.103Z,100
2017-11-08T09:33:23.553Z,100
2017-11-08T09:34:25.997Z,100
2017-11-08T09:35:28.426Z,99
2017-11-08T09:36:30.861Z,99
2017-11-08T09:37:33.297Z,99
2017-11-08T09:38:35.737Z,97
2017-11-08T09:39:38.171Z,96
2017-11-08T09:40:40.590Z,96
2017-11-08T09:41:43.023Z,96
2017-11-08T09:42:45.473Z,95
2017-11-08T09:43:47.905Z,95
2017-11-08T09:44:50.700Z,95
2017-11-08T09:45:53.149Z,95
2017-11-08T09:46:55.580Z,94
2017-11-08T09:47:58.024Z,95
2017-11-08T09:49:00.465Z,95
2017-11-08T09:50:02.905Z,94
2017-11-08T09:51:05.349Z,94
2017-11-08T09:52:07.782Z,94
2017-11-08T09:53:10.210Z,94
2017-11-08T09:54:13.031Z,94
2017-11-08T09:55:15.470Z,95
2017-11-08T09:56:17.897Z,95
2017-11-08T09:57:21.059Z,96
2017-11-08T09:58:23.505Z,96
2017-11-08T09:59:25.934Z,96
2017-11-08T10:00:28.370Z,97
2017-11-08T10:01:30.798Z,97
2017-11-08T10:02:33.233Z,98
2017-11-08T10:03:35.673Z,97
2017-11-08T10:04:38.463Z,96
2017-11-08T10:05:40.918Z,96
2017-11-08T10:06:43.355Z,97
2017-11-08T10:07:45.815Z,96
2017-11-08T10:08:48.236Z,96
2017-11-08T10:09:50.726Z,96
2017-11-08T10:10:53.492Z,96
2017-11-08T10:11:55.922Z,96
2017-11-08T10:12:58.593Z,96
2017-11-08T10:14:01.292Z,96
2017-11-08T10:15:04.067Z,96
2017-11-08T10:16:06.761Z,96
2017-11-08T10:17:09.926Z,96
2017-11-08T10:18:12.375Z,96
2017-11-08T10:19:14.792Z,96
2017-11-08T10:20:17.239Z,96
2017-11-08T10:21:19.688Z,96
2017-11-08T10:22:22.115Z,96
2017-11-08T10:23:24.565Z,97
2017-11-08T10:24:27.013Z,97
2017-11-08T10:25:29.445Z,97
2017-11-08T10:26:31.892Z,97
2017-11-08T10:27:34.327Z,96
2017-11-08T10:28:36.754Z,97
2017-11-08T10:29:39.559Z,97
2017-11-08T10:30:42.337Z,97
2017-11-08T10:31:44.778Z,98
2017-11-08T10:32:47.218Z,98
2017-11-08T10:33:49.656Z,97
2017-11-08T10:34:52.098Z,98
2017-11-08T10:35:54.536Z,98
2017-11-08T10:36:56.963Z,97
2017-11-08T10:37:59.779Z,97
2017-11-08T10:39:02.208Z,96
2017-11-08T10:40:04.646Z,96
2017-11-08T10:41:07.440Z,96
2017-11-08T10:42:12.869Z,96
2017-11-08T10:43:16.508Z,95
2017-11-08T10:44:18.948Z,95
2017-11-08T10:45:21.409Z,94
2017-11-08T10:46:24.218Z,94
2017-11-08T10:47:27.012Z,94
2017-11-08T10:48:29.445Z,95
2017-11-08T10:49:32.242Z,95
2017-11-08T10:50:34.663Z,95
2017-11-08T10:51:37.097Z,95
2017-11-08T10:52:39.537Z,95
2017-11-08T10:53:41.971Z,95
2017-11-08T10:54:44.415Z,94
2017-11-08T10:55:46.837Z,94
2017-11-08T10:56:49.262Z,94
2017-11-08T10:57:51.702Z,93
2017-11-08T10:58:54.137Z,93
2017-11-08T10:59:56.569Z,93
2017-11-08T11:00:59.010Z,93
2017-11-08T11:02:01.431Z,93
2017-11-08T11:03:03.867Z,93
2017-11-08T11:04:06.309Z,93
2017-11-08T11:05:08.737Z,94
2017-11-08T11:06:11.165Z,94
2017-11-08T11:07:13.953Z,95
2017-11-08T11:08:16.379Z,94
2017-11-08T11:09:18.817Z,94
2017-11-08T11:10:21.243Z,94
2017-11-08T11:11:24.017Z,95
2017-11-08T11:12:26.461Z,95
2017-11-08T11:13:29.254Z,96
2017-11-08T11:14:31.684Z,96
2017-11-08T11:15:34.127Z,96
2017-11-08T11:16:36.915Z,97
2017-11-08T11:17:39.350Z,98
2017-11-08T11:18:41.774Z,99
2017-11-08T11:19:44.207Z,99
2017-11-08T11:20:46.650Z,100
2017-11-08T11:21:49.077Z,99
2017-11-08T11:22:51.506Z,100
2017-11-08T11:23:53.936Z,100
2017-11-08T11:24:56.380Z,100
2017-11-08T11:25:58.807Z,100
2017-11-08T11:27:01.239Z,100
2017-11-08T11:28:04.017Z,99
2017-11-08T11:29:06.456Z,98
2017-11-08T11:30:09.258Z,98
2017-11-08T11:31:11.698Z,98
2017-11-08T11:32:14.140Z,97
2017-11-08T11:33:16.558Z,97
2017-11-08T11:34:18.993Z,98
2017-11-08T11:35:21.429Z,98
2017-11-08T11:36:23.850Z,98
2017-11-08T11:37:26.290Z,99
2017-11-08T11:38:28.719Z,99
2017-11-08T11:39:31.150Z,99
2017-11-08T11:40:33.587Z,100
2017-11-08T11:41:36.028Z,100
2017-11-08T11:42:38.436Z,100
2017-11-08T11:43:40.881Z,100
2017-11-08T11:44:43.313Z,99
2017-11-08T11:45:45.746Z,99
2017-11-08T11:46:48.168Z,98
2017-11-08T11:47:50.598Z,99
2017-11-08T11:48:53.030Z,99
2017-11-08T11:49:55.469Z,99
2017-11-08T11:50:57.900Z,99
2017-11-08T11:52:00.336Z,99
2017-11-08T11:53:03.134Z,99
2017-11-08T11:54:05.577Z,100
2017-11-08T11:55:08.004Z,100
2017-11-08T11:56:10.428Z,100
2017-11-08T11:57:12.866Z,100
2017-11-08T11:58:15.287Z,100
2017-11-08T11:59:17.712Z,100
2017-11-08T12:00:20.515Z,100
2017-11-08T12:01:22.931Z,100
2017-11-08T12:02:25.367Z,100
2017-11-08T12:03:28.510Z,100
2017-11-08T12:04:30.937Z,100
2017-11-08T12:05:33.718Z,100
2017-11-08T12:06:36.157Z,100
2017-11-08T12:07:38.587Z,100
2017-11-08T12:08:41.033Z,100
2017-11-08T12:09:43.469Z,100
2017-11-08T12:10:45.901Z,100
2017-11-08T12:11:48.330Z,100
2017-11-08T12:12:50.770Z,100
2017-11-08T12:13:53.205Z,100
2017-11-08T12:14:55.638Z,100
2017-11-08T12:15:58.073Z,100
2017-11-08T12:17:00.499Z,100
2017-11-08T12:18:02.950Z,100
2017-11-08T12:19:05.392Z,100
2017-11-08T12:20:07.827Z,100
2017-11-08T12:21:10.262Z,99
2017-11-08T12:22:12.713Z,100
2017-11-08T12:23:15.141Z,99
2017-11-08T12:24:17.567Z,99
2017-11-08T12:25:20.355Z,99
2017-11-08T12:26:22.779Z,98
2017-11-08T12:27:25.214Z,97
2017-11-08T12:28:27.648Z,97
2017-11-08T12:29:30.100Z,97
2017-11-08T12:30:32.534Z,96
2017-11-08T12:31:35.340Z,97
2017-11-08T12:32:37.764Z,96
2017-11-08T12:33:40.559Z,96
2017-11-08T12:34:42.991Z,95
2017-11-08T12:35:45.783Z,96
2017-11-08T12:36:48.218Z,95
2017-11-08T12:37:50.656Z,95
2017-11-08T12:38:53.088Z,95
2017-11-08T12:39:55.535Z,94
2017-11-08T12:40:57.962Z,94
2017-11-08T12:42:00.390Z,94
2017-11-08T12:43:02.811Z,94
2017-11-08T12:44:05.261Z,94
2017-11-08T12:45:07.751Z,94
2017-11-08T12:46:10.179Z,94
2017-11-08T12:47:12.614Z,94
2017-11-08T12:48:15.051Z,94
2017-11-08T12:49:17.479Z,94
2017-11-08T12:50:19.921Z,94
2017-11-08T12:51:22.698Z,94
2017-11-08T12:52:25.125Z,94
2017-11-08T12:53:27.565Z,94
2017-11-08T12:54:30.004Z,93
2017-11-08T12:55:32.778Z,93
2017-11-08T12:56:35.216Z,93
2017-11-08T12:57:38.018Z,93
2017-11-08T12:58:40.457Z,91
2017-11-08T12:59:42.893Z,90
2017-11-08T13:00:45.321Z,90
2017-11-08T13:01:47.755Z,90
2017-11-08T13:02:50.185Z,90
2017-11-08T13:03:52.613Z,90
2017-11-08T13:04:55.068Z,90
2017-11-08T13:05:57.477Z,90
2017-11-08T13:06:59.913Z,90
2017-11-08T13:08:02.348Z,90
2017-11-08T13:09:04.782Z,90
2017-11-08T13:10:07.570Z,90
2017-11-08T13:11:10.006Z,90
2017-11-08T13:12:12.433Z,90
2017-11-08T13:13:15.229Z,89
2017-11-08T13:14:17.661Z,89
2017-11-08T13:15:20.093Z,89
2017-11-08T13:16:22.532Z,89
2017-11-08T13:17:24.976Z,89
2017-11-08T13:18:27.405Z,90
2017-11-08T13:19:29.832Z,89
2017-11-08T13:20:32.284Z,89
2017-11-08T13:21:34.712Z,89
2017-11-08T13:22:37.155Z,89
2017-11-08T13:23:39.594Z,88
2017-11-08T13:24:42.014Z,89
2017-11-08T13:25:44.450Z,89
2017-11-08T13:26:46.891Z,89
2017-11-08T13:27:49.322Z,89
2017-11-08T13:28:52.120Z,89
2017-11-08T13:29:54.533Z,89
2017-11-08T13:30:56.968Z,89
2017-11-08T13:31:59.414Z,89
2017-11-08T13:33:01.857Z,89
2017-11-08T13:34:04.287Z,90
2017-11-08T13:35:06.724Z,90
2017-11-08T13:36:09.148Z,90
2017-11-08T13:37:12.291Z,91
2017-11-08T13:38:14.731Z,91
2017-11-08T13:39:17.175Z,91
2017-11-08T13:40:19.993Z,91
2017-11-08T13:41:22.450Z,91
2017-11-08T13:42:24.889Z,91
2017-11-08T13:43:27.313Z,91
2017-11-08T13:44:29.758Z,92
2017-11-08T13:45:32.567Z,92
2017-11-08T13:46:34.993Z,92
2017-11-08T13:47:37.426Z,92
2017-11-08T13:48:39.864Z,92
2017-11-08T13:49:43.053Z,92
2017-11-08T13:50:45.507Z,92
2017-11-08T13:51:47.932Z,93
2017-11-08T13:52:50.718Z,93
2017-11-08T13:53:53.147Z,93
2017-11-08T13:54:55.952Z,93
2017-11-08T13:55:58.379Z,93
2017-11-08T13:57:00.821Z,93
2017-11-08T13:58:03.638Z,93
2017-11-08T13:59:06.073Z,93
2017-11-08T14:00:08.880Z,93
2017-11-08T14:01:11.332Z,93
2017-11-08T14:02:13.758Z,93
2017-11-08T14:03:16.203Z,93
2017-11-08T14:04:18.629Z,93
2017-11-08T14:05:21.430Z,93
2017-11-08T14:06:23.850Z,94
2017-11-08T14:07:26.282Z,94
2017-11-08T14:08:29.093Z,94
2017-11-08T14:09:31.519Z,93
2017-11-08T14:10:33.953Z,93
2017-11-08T14:11:36.391Z,92
2017-11-08T14:12:38.831Z,92
2017-11-08T14:13:41.629Z,92
2017-11-08T14:14:44.048Z,92
2017-11-08T14:15:46.481Z,92
2017-11-08T14:16:49.283Z,92
2017-11-08T14:17:51.716Z,92
2017-11-08T14:18:54.144Z,93
2017-11-08T14:19:56.584Z,93
2017-11-08T14:20:59.016Z,93
2017-11-08T14:22:01.459Z,93
2017-11-08T14:23:03.892Z,93
2017-11-08T14:24:07.049Z,93
2017-11-08T14:25:09.835Z,93
2017-11-08T14:26:12.273Z,93
2017-11-08T14:27:14.711Z,93
2017-11-08T14:28:17.145Z,93
2017-11-08T14:29:19.567Z,93